Terminal Aerodrome Forecast
Issued by NWS

Current Version | Previous Version | Text Only | Print | Product List | Glossary On
Versions: 1 2 3 4 5 6 7 8 9 10 11 12 13 14 15 16 17 18 19 20 21 22
000
FTPA31 PHFO 041700
TAFKOA
TAF
PHKO 041739Z 0418/0518 10005KT P6SM -RA SCT020 BKN035 OVC120
     FM042000 35016G23KT P6SM -RA SCT015 OVC030
     FM050600 02013KT P6SM VCSH BKN050 BKN100=

USA.gov is the U.S. government's official web portal to all federal, state and local government web resources and services.